sensor_id;sensor_type;location;lat;lon;timestamp;P1;durP1;ratioP1;P2;durP2;ratioP2
19036;SDS011;9651;49.138;8.900;2023-04-06T00:02:18;8.53;;;6.17;;
19036;SDS011;9651;49.138;8.900;2023-04-06T00:06:20;9.10;;;6.73;;
19036;SDS011;9651;49.138;8.900;2023-04-06T00:10:22;9.47;;;6.63;;
19036;SDS011;9651;49.138;8.900;2023-04-06T00:14:24;10.13;;;7.53;;
19036;SDS011;9651;49.138;8.900;2023-04-06T00:18:28;14.07;;;6.27;;
19036;SDS011;9651;49.138;8.900;2023-04-06T00:22:30;13.10;;;6.80;;
19036;SDS011;9651;49.138;8.900;2023-04-06T00:26:32;11.20;;;6.80;;
19036;SDS011;9651;49.138;8.900;2023-04-06T00:30:34;10.03;;;6.43;;
19036;SDS011;9651;49.138;8.900;2023-04-06T00:34:38;9.80;;;6.40;;
19036;SDS011;9651;49.138;8.900;2023-04-06T00:38:40;12.33;;;7.40;;
19036;SDS011;9651;49.138;8.900;2023-04-06T00:42:42;12.13;;;6.43;;
19036;SDS011;9651;49.138;8.900;2023-04-06T00:46:44;12.60;;;6.23;;
19036;SDS011;9651;49.138;8.900;2023-04-06T00:50:48;13.60;;;7.10;;
19036;SDS011;9651;49.138;8.900;2023-04-06T00:54:50;13.73;;;6.00;;
19036;SDS011;9651;49.138;8.900;2023-04-06T00:58:54;9.63;;;6.07;;
19036;SDS011;9651;49.138;8.900;2023-04-06T01:02:57;10.30;;;6.13;;
19036;SDS011;9651;49.138;8.900;2023-04-06T01:07:09;12.80;;;7.90;;
19036;SDS011;9651;49.138;8.900;2023-04-06T01:11:19;10.87;;;6.50;;
19036;SDS011;9651;49.138;8.900;2023-04-06T01:15:24;9.70;;;6.13;;
19036;SDS011;9651;49.138;8.900;2023-04-06T01:19:27;13.20;;;6.83;;
19036;SDS011;9651;49.138;8.900;2023-04-06T01:23:31;10.03;;;6.53;;
19036;SDS011;9651;49.138;8.900;2023-04-06T01:27:33;12.23;;;7.57;;
19036;SDS011;9651;49.138;8.900;2023-04-06T01:32:14;11.70;;;6.53;;
19036;SDS011;9651;49.138;8.900;2023-04-06T01:36:23;13.50;;;7.60;;
19036;SDS011;9651;49.138;8.900;2023-04-06T01:40:45;12.97;;;7.90;;
19036;SDS011;9651;49.138;8.900;2023-04-06T01:44:48;12.97;;;8.00;;
19036;SDS011;9651;49.138;8.900;2023-04-06T01:48:50;13.83;;;8.10;;
19036;SDS011;9651;49.138;8.900;2023-04-06T01:53:10;12.90;;;7.17;;
19036;SDS011;9651;49.138;8.900;2023-04-06T01:57:15;13.43;;;7.70;;
19036;SDS011;9651;49.138;8.900;2023-04-06T02:01:22;11.03;;;6.97;;
19036;SDS011;9651;49.138;8.900;2023-04-06T02:05:29;9.73;;;7.00;;
19036;SDS011;9651;49.138;8.900;2023-04-06T02:09:34;10.67;;;6.20;;
19036;SDS011;9651;49.138;8.900;2023-04-06T02:13:42;9.97;;;7.03;;
19036;SDS011;9651;49.138;8.900;2023-04-06T02:17:45;12.60;;;7.60;;
19036;SDS011;9651;49.138;8.900;2023-04-06T02:21:47;13.47;;;7.80;;
19036;SDS011;9651;49.138;8.900;2023-04-06T02:25:49;12.37;;;7.60;;
19036;SDS011;9651;49.138;8.900;2023-04-06T02:29:52;14.80;;;8.37;;
19036;SDS011;9651;49.138;8.900;2023-04-06T02:33:54;12.87;;;7.83;;
19036;SDS011;9651;49.138;8.900;2023-04-06T02:37:57;11.23;;;7.87;;
19036;SDS011;9651;49.138;8.900;2023-04-06T02:41:59;13.57;;;8.30;;
19036;SDS011;9651;49.138;8.900;2023-04-06T02:46:03;13.57;;;7.17;;
19036;SDS011;9651;49.138;8.900;2023-04-06T02:50:09;11.57;;;8.00;;
19036;SDS011;9651;49.138;8.900;2023-04-06T02:54:19;12.60;;;7.90;;
19036;SDS011;9651;49.138;8.900;2023-04-06T02:58:21;11.90;;;8.13;;
19036;SDS011;9651;49.138;8.900;2023-04-06T03:02:29;12.63;;;8.10;;
19036;SDS011;9651;49.138;8.900;2023-04-06T03:06:39;13.47;;;8.07;;
19036;SDS011;9651;49.138;8.900;2023-04-06T03:10:53;14.67;;;8.63;;
19036;SDS011;9651;49.138;8.900;2023-04-06T03:14:59;11.97;;;8.57;;
19036;SDS011;9651;49.138;8.900;2023-04-06T03:19:04;23.90;;;10.50;;
19036;SDS011;9651;49.138;8.900;2023-04-06T03:23:08;8.47;;;6.47;;
19036;SDS011;9651;49.138;8.900;2023-04-06T03:27:14;8.83;;;6.10;;
19036;SDS011;9651;49.138;8.900;2023-04-06T03:31:18;10.13;;;6.47;;
19036;SDS011;9651;49.138;8.900;2023-04-06T03:35:30;11.03;;;6.30;;
19036;SDS011;9651;49.138;8.900;2023-04-06T03:39:32;9.20;;;5.70;;
19036;SDS011;9651;49.138;8.900;2023-04-06T03:43:35;10.20;;;6.20;;
19036;SDS011;9651;49.138;8.900;2023-04-06T03:47:37;10.60;;;7.30;;
19036;SDS011;9651;49.138;8.900;2023-04-06T03:51:43;13.43;;;6.60;;
19036;SDS011;9651;49.138;8.900;2023-04-06T03:55:45;11.50;;;6.47;;
19036;SDS011;9651;49.138;8.900;2023-04-06T03:59:47;14.87;;;7.50;;
19036;SDS011;9651;49.138;8.900;2023-04-06T04:03:49;10.03;;;6.87;;
19036;SDS011;9651;49.138;8.900;2023-04-06T04:07:52;12.03;;;7.27;;
19036;SDS011;9651;49.138;8.900;2023-04-06T04:11:59;11.23;;;7.77;;
19036;SDS011;9651;49.138;8.900;2023-04-06T04:16:01;10.87;;;7.43;;
19036;SDS011;9651;49.138;8.900;2023-04-06T04:20:03;11.97;;;7.43;;
19036;SDS011;9651;49.138;8.900;2023-04-06T04:24:07;12.57;;;7.80;;
19036;SDS011;9651;49.138;8.900;2023-04-06T04:28:11;12.73;;;7.73;;
19036;SDS011;9651;49.138;8.900;2023-04-06T04:32:15;14.07;;;7.47;;
19036;SDS011;9651;49.138;8.900;2023-04-06T04:36:18;14.77;;;7.90;;
19036;SDS011;9651;49.138;8.900;2023-04-06T04:40:22;12.93;;;8.70;;
19036;SDS011;9651;49.138;8.900;2023-04-06T04:44:29;13.37;;;8.63;;
19036;SDS011;9651;49.138;8.900;2023-04-06T04:48:32;12.33;;;8.83;;
19036;SDS011;9651;49.138;8.900;2023-04-06T04:52:37;14.83;;;7.97;;
19036;SDS011;9651;49.138;8.900;2023-04-06T04:56:51;14.10;;;8.10;;
19036;SDS011;9651;49.138;8.900;2023-04-06T05:01:04;15.33;;;8.80;;
19036;SDS011;9651;49.138;8.900;2023-04-06T05:05:07;14.83;;;9.60;;
19036;SDS011;9651;49.138;8.900;2023-04-06T05:09:10;12.57;;;8.73;;
19036;SDS011;9651;49.138;8.900;2023-04-06T05:13:17;14.83;;;9.47;;
19036;SDS011;9651;49.138;8.900;2023-04-06T05:17:21;15.47;;;9.17;;
19036;SDS011;9651;49.138;8.900;2023-04-06T05:21:24;12.47;;;8.87;;
19036;SDS011;9651;49.138;8.900;2023-04-06T05:25:35;15.13;;;8.77;;
19036;SDS011;9651;49.138;8.900;2023-04-06T05:29:49;18.33;;;9.70;;
19036;SDS011;9651;49.138;8.900;2023-04-06T05:33:52;19.47;;;9.10;;
19036;SDS011;9651;49.138;8.900;2023-04-06T05:38:12;31.03;;;9.53;;
19036;SDS011;9651;49.138;8.900;2023-04-06T05:42:14;14.47;;;8.60;;
19036;SDS011;9651;49.138;8.900;2023-04-06T05:46:28;16.23;;;8.87;;
19036;SDS011;9651;49.138;8.900;2023-04-06T05:50:32;13.37;;;8.47;;
19036;SDS011;9651;49.138;8.900;2023-04-06T05:54:35;27.53;;;13.93;;
19036;SDS011;9651;49.138;8.900;2023-04-06T05:58:38;13.97;;;9.23;;
19036;SDS011;9651;49.138;8.900;2023-04-06T06:02:45;25.47;;;9.60;;
19036;SDS011;9651;49.138;8.900;2023-04-06T06:06:53;15.77;;;9.17;;
19036;SDS011;9651;49.138;8.900;2023-04-06T06:11:05;19.57;;;9.57;;
19036;SDS011;9651;49.138;8.900;2023-04-06T06:15:07;12.50;;;8.43;;
19036;SDS011;9651;49.138;8.900;2023-04-06T06:19:16;14.70;;;9.23;;
19036;SDS011;9651;49.138;8.900;2023-04-06T06:23:19;15.23;;;8.90;;
19036;SDS011;9651;49.138;8.900;2023-04-06T06:27:22;14.07;;;9.13;;
19036;SDS011;9651;49.138;8.900;2023-04-06T06:31:24;13.47;;;9.03;;
19036;SDS011;9651;49.138;8.900;2023-04-06T06:35:29;12.80;;;8.87;;
19036;SDS011;9651;49.138;8.900;2023-04-06T06:39:35;14.83;;;10.37;;
19036;SDS011;9651;49.138;8.900;2023-04-06T06:43:37;14.37;;;9.90;;
19036;SDS011;9651;49.138;8.900;2023-04-06T06:47:45;12.87;;;9.00;;
19036;SDS011;9651;49.138;8.900;2023-04-06T06:51:49;16.43;;;9.53;;
19036;SDS011;9651;49.138;8.900;2023-04-06T06:55:51;15.87;;;9.70;;
19036;SDS011;9651;49.138;8.900;2023-04-06T06:59:53;15.33;;;11.13;;
19036;SDS011;9651;49.138;8.900;2023-04-06T07:03:56;15.33;;;10.60;;
19036;SDS011;9651;49.138;8.900;2023-04-06T07:07:59;12.77;;;9.67;;
19036;SDS011;9651;49.138;8.900;2023-04-06T07:12:01;17.33;;;10.90;;
19036;SDS011;9651;49.138;8.900;2023-04-06T07:16:03;16.50;;;11.33;;
19036;SDS011;9651;49.138;8.900;2023-04-06T07:20:06;14.57;;;10.20;;
19036;SDS011;9651;49.138;8.900;2023-04-06T07:24:10;19.80;;;11.70;;
19036;SDS011;9651;49.138;8.900;2023-04-06T07:28:12;16.03;;;10.93;;
19036;SDS011;9651;49.138;8.900;2023-04-06T07:32:14;14.93;;;10.67;;
19036;SDS011;9651;49.138;8.900;2023-04-06T07:36:16;15.40;;;10.60;;
19036;SDS011;9651;49.138;8.900;2023-04-06T07:40:20;16.60;;;11.73;;
19036;SDS011;9651;49.138;8.900;2023-04-06T07:44:23;16.53;;;10.67;;
19036;SDS011;9651;49.138;8.900;2023-04-06T07:48:26;14.60;;;11.90;;
19036;SDS011;9651;49.138;8.900;2023-04-06T07:52:28;19.67;;;12.13;;
19036;SDS011;9651;49.138;8.900;2023-04-06T07:56:33;15.48;;;11.35;;
19036;SDS011;9651;49.138;8.900;2023-04-06T08:00:35;18.10;;;9.43;;
19036;SDS011;9651;49.138;8.900;2023-04-06T08:04:37;17.55;;;10.52;;
19036;SDS011;9651;49.138;8.900;2023-04-06T08:08:39;18.55;;;9.73;;
19036;SDS011;9651;49.138;8.900;2023-04-06T08:12:43;18.70;;;8.88;;
19036;SDS011;9651;49.138;8.900;2023-04-06T08:16:45;11.80;;;8.60;;
19036;SDS011;9651;49.138;8.900;2023-04-06T08:20:48;13.90;;;9.15;;
19036;SDS011;9651;49.138;8.900;2023-04-06T08:24:50;12.52;;;8.93;;
19036;SDS011;9651;49.138;8.900;2023-04-06T08:28:54;11.82;;;8.70;;
19036;SDS011;9651;49.138;8.900;2023-04-06T08:32:56;10.43;;;7.38;;
19036;SDS011;9651;49.138;8.900;2023-04-06T08:36:58;13.70;;;8.68;;
19036;SDS011;9651;49.138;8.900;2023-04-06T08:41:00;12.82;;;9.10;;
19036;SDS011;9651;49.138;8.900;2023-04-06T08:45:09;13.05;;;8.27;;
19036;SDS011;9651;49.138;8.900;2023-04-06T08:49:11;10.85;;;8.13;;
19036;SDS011;9651;49.138;8.900;2023-04-06T08:53:15;9.40;;;8.07;;
19036;SDS011;9651;49.138;8.900;2023-04-06T08:57:17;11.45;;;8.85;;
19036;SDS011;9651;49.138;8.900;2023-04-06T09:01:23;13.75;;;8.80;;
19036;SDS011;9651;49.138;8.900;2023-04-06T09:05:27;10.18;;;7.95;;
19036;SDS011;9651;49.138;8.900;2023-04-06T09:09:29;14.80;;;7.82;;
19036;SDS011;9651;49.138;8.900;2023-04-06T09:13:31;10.75;;;8.13;;
19036;SDS011;9651;49.138;8.900;2023-04-06T09:17:46;10.20;;;7.82;;
19036;SDS011;9651;49.138;8.900;2023-04-06T09:21:48;10.10;;;8.05;;
19036;SDS011;9651;49.138;8.900;2023-04-06T09:25:50;10.00;;;8.10;;
19036;SDS011;9651;49.138;8.900;2023-04-06T09:30:01;10.43;;;7.63;;
19036;SDS011;9651;49.138;8.900;2023-04-06T09:34:06;10.13;;;8.40;;
19036;SDS011;9651;49.138;8.900;2023-04-06T09:38:10;10.25;;;7.93;;
19036;SDS011;9651;49.138;8.900;2023-04-06T09:42:22;8.63;;;7.82;;
19036;SDS011;9651;49.138;8.900;2023-04-06T09:46:26;9.18;;;7.68;;
19036;SDS011;9651;49.138;8.900;2023-04-06T09:50:30;9.48;;;8.25;;
19036;SDS011;9651;49.138;8.900;2023-04-06T09:54:33;8.68;;;7.50;;
19036;SDS011;9651;49.138;8.900;2023-04-06T09:58:37;11.88;;;8.35;;
19036;SDS011;9651;49.138;8.900;2023-04-06T10:02:44;8.65;;;7.82;;
19036;SDS011;9651;49.138;8.900;2023-04-06T10:06:53;11.05;;;7.82;;
19036;SDS011;9651;49.138;8.900;2023-04-06T10:10:56;9.93;;;8.20;;
19036;SDS011;9651;49.138;8.900;2023-04-06T10:14:58;12.00;;;8.20;;
19036;SDS011;9651;49.138;8.900;2023-04-06T10:19:02;8.10;;;6.65;;
19036;SDS011;9651;49.138;8.900;2023-04-06T10:23:13;12.40;;;7.70;;
19036;SDS011;9651;49.138;8.900;2023-04-06T10:27:27;10.15;;;6.00;;
19036;SDS011;9651;49.138;8.900;2023-04-06T10:31:29;6.47;;;5.78;;
19036;SDS011;9651;49.138;8.900;2023-04-06T10:35:38;8.45;;;6.68;;
19036;SDS011;9651;49.138;8.900;2023-04-06T10:39:47;7.57;;;6.45;;
19036;SDS011;9651;49.138;8.900;2023-04-06T10:43:58;7.60;;;6.40;;
19036;SDS011;9651;49.138;8.900;2023-04-06T10:48:01;7.03;;;6.10;;
19036;SDS011;9651;49.138;8.900;2023-04-06T10:52:14;6.85;;;5.50;;
19036;SDS011;9651;49.138;8.900;2023-04-06T10:56:18;7.63;;;6.30;;
19036;SDS011;9651;49.138;8.900;2023-04-06T11:00:23;9.70;;;6.68;;
19036;SDS011;9651;49.138;8.900;2023-04-06T11:04:25;8.60;;;6.60;;
19036;SDS011;9651;49.138;8.900;2023-04-06T11:08:31;8.98;;;6.75;;
19036;SDS011;9651;49.138;8.900;2023-04-06T11:12:36;8.05;;;7.28;;
19036;SDS011;9651;49.138;8.900;2023-04-06T11:16:38;11.95;;;6.30;;
19036;SDS011;9651;49.138;8.900;2023-04-06T11:20:40;7.05;;;6.35;;
19036;SDS011;9651;49.138;8.900;2023-04-06T11:24:48;7.35;;;6.57;;
19036;SDS011;9651;49.138;8.900;2023-04-06T11:28:51;7.80;;;5.97;;
19036;SDS011;9651;49.138;8.900;2023-04-06T11:33:00;8.07;;;6.30;;
19036;SDS011;9651;49.138;8.900;2023-04-06T11:37:04;6.53;;;5.93;;
19036;SDS011;9651;49.138;8.900;2023-04-06T11:41:09;6.25;;;5.65;;
19036;SDS011;9651;49.138;8.900;2023-04-06T11:45:14;7.22;;;6.50;;
19036;SDS011;9651;49.138;8.900;2023-04-06T11:49:17;7.13;;;6.43;;
19036;SDS011;9651;49.138;8.900;2023-04-06T11:53:19;6.63;;;5.90;;
19036;SDS011;9651;49.138;8.900;2023-04-06T11:57:21;7.18;;;6.38;;
19036;SDS011;9651;49.138;8.900;2023-04-06T12:01:26;7.97;;;6.72;;
19036;SDS011;9651;49.138;8.900;2023-04-06T12:05:28;8.35;;;6.75;;
19036;SDS011;9651;49.138;8.900;2023-04-06T12:09:30;6.88;;;6.20;;
19036;SDS011;9651;49.138;8.900;2023-04-06T12:13:32;6.43;;;5.65;;
19036;SDS011;9651;49.138;8.900;2023-04-06T12:17:36;6.97;;;6.28;;
19036;SDS011;9651;49.138;8.900;2023-04-06T12:21:38;6.78;;;6.07;;
19036;SDS011;9651;49.138;8.900;2023-04-06T12:25:41;7.22;;;6.32;;
19036;SDS011;9651;49.138;8.900;2023-04-06T12:29:44;6.53;;;5.97;;
19036;SDS011;9651;49.138;8.900;2023-04-06T12:33:48;7.20;;;6.45;;
19036;SDS011;9651;49.138;8.900;2023-04-06T12:37:50;7.35;;;6.43;;
19036;SDS011;9651;49.138;8.900;2023-04-06T12:41:52;7.13;;;6.43;;
19036;SDS011;9651;49.138;8.900;2023-04-06T12:45:55;8.18;;;7.05;;
19036;SDS011;9651;49.138;8.900;2023-04-06T12:49:58;6.80;;;6.10;;
19036;SDS011;9651;49.138;8.900;2023-04-06T12:54:01;7.13;;;6.30;;
19036;SDS011;9651;49.138;8.900;2023-04-06T12:58:03;6.57;;;5.97;;
19036;SDS011;9651;49.138;8.900;2023-04-06T13:02:05;7.95;;;6.95;;
19036;SDS011;9651;49.138;8.900;2023-04-06T13:06:09;10.02;;;6.43;;
19036;SDS011;9651;49.138;8.900;2023-04-06T13:10:11;8.00;;;7.30;;
19036;SDS011;9651;49.138;8.900;2023-04-06T13:14:13;7.63;;;6.93;;
19036;SDS011;9651;49.138;8.900;2023-04-06T13:18:15;8.15;;;6.32;;
19036;SDS011;9651;49.138;8.900;2023-04-06T13:22:18;6.78;;;6.18;;
19036;SDS011;9651;49.138;8.900;2023-04-06T13:26:20;8.25;;;6.38;;
19036;SDS011;9651;49.138;8.900;2023-04-06T13:30:23;7.60;;;6.63;;
19036;SDS011;9651;49.138;8.900;2023-04-06T13:34:25;7.68;;;6.82;;
19036;SDS011;9651;49.138;8.900;2023-04-06T13:38:29;7.85;;;7.05;;
19036;SDS011;9651;49.138;8.900;2023-04-06T13:42:31;7.38;;;6.60;;
19036;SDS011;9651;49.138;8.900;2023-04-06T13:46:35;10.25;;;7.57;;
19036;SDS011;9651;49.138;8.900;2023-04-06T13:50:37;11.65;;;6.68;;
19036;SDS011;9651;49.138;8.900;2023-04-06T13:54:40;10.93;;;6.57;;
19036;SDS011;9651;49.138;8.900;2023-04-06T13:58:42;8.27;;;6.90;;
19036;SDS011;9651;49.138;8.900;2023-04-06T14:02:44;9.13;;;7.00;;
19036;SDS011;9651;49.138;8.900;2023-04-06T14:06:46;9.30;;;7.45;;
19036;SDS011;9651;49.138;8.900;2023-04-06T14:10:49;11.63;;;7.07;;
19036;SDS011;9651;49.138;8.900;2023-04-06T14:14:52;8.77;;;6.57;;
19036;SDS011;9651;49.138;8.900;2023-04-06T14:18:56;8.80;;;6.45;;
19036;SDS011;9651;49.138;8.900;2023-04-06T14:22:59;8.73;;;6.90;;
19036;SDS011;9651;49.138;8.900;2023-04-06T14:27:03;12.05;;;7.30;;
19036;SDS011;9651;49.138;8.900;2023-04-06T14:31:09;9.45;;;6.38;;
19036;SDS011;9651;49.138;8.900;2023-04-06T14:35:13;7.13;;;5.97;;
19036;SDS011;9651;49.138;8.900;2023-04-06T14:39:15;7.00;;;6.30;;
19036;SDS011;9651;49.138;8.900;2023-04-06T14:43:18;9.35;;;6.63;;
19036;SDS011;9651;49.138;8.900;2023-04-06T14:47:20;9.18;;;6.75;;
19036;SDS011;9651;49.138;8.900;2023-04-06T14:51:23;10.98;;;7.03;;
19036;SDS011;9651;49.138;8.900;2023-04-06T14:55:26;9.18;;;6.93;;
19036;SDS011;9651;49.138;8.900;2023-04-06T14:59:29;10.32;;;6.13;;
19036;SDS011;9651;49.138;8.900;2023-04-06T15:03:32;8.05;;;5.65;;
19036;SDS011;9651;49.138;8.900;2023-04-06T15:07:34;8.85;;;6.72;;
19036;SDS011;9651;49.138;8.900;2023-04-06T15:11:37;9.65;;;6.50;;
19036;SDS011;9651;49.138;8.900;2023-04-06T15:15:41;8.57;;;5.45;;
19036;SDS011;9651;49.138;8.900;2023-04-06T15:19:43;10.35;;;6.40;;
19036;SDS011;9651;49.138;8.900;2023-04-06T15:23:45;8.73;;;6.78;;
19036;SDS011;9651;49.138;8.900;2023-04-06T15:27:47;8.07;;;5.55;;
19036;SDS011;9651;49.138;8.900;2023-04-06T15:31:50;10.98;;;6.93;;
19036;SDS011;9651;49.138;8.900;2023-04-06T15:35:52;11.65;;;6.07;;
19036;SDS011;9651;49.138;8.900;2023-04-06T15:39:54;9.63;;;5.72;;
19036;SDS011;9651;49.138;8.900;2023-04-06T15:43:56;9.52;;;5.55;;
19036;SDS011;9651;49.138;8.900;2023-04-06T15:48:00;10.55;;;6.13;;
19036;SDS011;9651;49.138;8.900;2023-04-06T15:52:01;10.43;;;6.45;;
19036;SDS011;9651;49.138;8.900;2023-04-06T15:56:04;8.32;;;5.70;;
19036;SDS011;9651;49.138;8.900;2023-04-06T16:00:08;8.75;;;5.50;;
19036;SDS011;9651;49.138;8.900;2023-04-06T16:04:12;7.65;;;5.50;;
19036;SDS011;9651;49.138;8.900;2023-04-06T16:08:14;10.57;;;4.97;;
19036;SDS011;9651;49.138;8.900;2023-04-06T16:12:18;7.30;;;4.88;;
19036;SDS011;9651;49.138;8.900;2023-04-06T16:16:20;7.30;;;5.10;;
19036;SDS011;9651;49.138;8.900;2023-04-06T16:20:23;6.88;;;4.80;;
19036;SDS011;9651;49.138;8.900;2023-04-06T16:24:25;6.10;;;4.82;;
19036;SDS011;9651;49.138;8.900;2023-04-06T16:28:28;7.07;;;4.72;;
19036;SDS011;9651;49.138;8.900;2023-04-06T16:32:30;9.57;;;4.88;;
19036;SDS011;9651;49.138;8.900;2023-04-06T16:36:33;7.45;;;4.55;;
19036;SDS011;9651;49.138;8.900;2023-04-06T16:40:36;8.50;;;5.05;;
19036;SDS011;9651;49.138;8.900;2023-04-06T16:44:38;10.25;;;5.82;;
19036;SDS011;9651;49.138;8.900;2023-04-06T16:48:40;9.32;;;5.20;;
19036;SDS011;9651;49.138;8.900;2023-04-06T16:52:43;9.55;;;4.93;;
19036;SDS011;9651;49.138;8.900;2023-04-06T16:56:45;9.45;;;5.07;;
19036;SDS011;9651;49.138;8.900;2023-04-06T17:00:47;8.43;;;4.88;;
19036;SDS011;9651;49.138;8.900;2023-04-06T17:04:49;8.30;;;5.47;;
19036;SDS011;9651;49.138;8.900;2023-04-06T17:08:52;8.27;;;5.07;;
19036;SDS011;9651;49.138;8.900;2023-04-06T17:12:54;8.20;;;5.00;;
19036;SDS011;9651;49.138;8.900;2023-04-06T17:16:57;8.35;;;4.68;;
19036;SDS011;9651;49.138;8.900;2023-04-06T17:21:02;8.77;;;4.75;;
19036;SDS011;9651;49.138;8.900;2023-04-06T17:25:07;9.25;;;5.05;;
19036;SDS011;9651;49.138;8.900;2023-04-06T17:29:10;9.32;;;4.32;;
19036;SDS011;9651;49.138;8.900;2023-04-06T17:33:12;7.15;;;4.95;;
19036;SDS011;9651;49.138;8.900;2023-04-06T17:37:14;9.15;;;5.07;;
19036;SDS011;9651;49.138;8.900;2023-04-06T17:41:18;10.02;;;5.38;;
19036;SDS011;9651;49.138;8.900;2023-04-06T17:45:20;9.80;;;5.05;;
19036;SDS011;9651;49.138;8.900;2023-04-06T17:49:22;10.80;;;5.03;;
19036;SDS011;9651;49.138;8.900;2023-04-06T17:53:24;8.98;;;4.55;;
19036;SDS011;9651;49.138;8.900;2023-04-06T17:57:30;6.23;;;4.43;;
19036;SDS011;9651;49.138;8.900;2023-04-06T18:01:32;7.37;;;3.77;;
19036;SDS011;9651;49.138;8.900;2023-04-06T18:05:34;6.80;;;3.35;;
19036;SDS011;9651;49.138;8.900;2023-04-06T18:09:37;6.40;;;3.40;;
19036;SDS011;9651;49.138;8.900;2023-04-06T18:13:41;6.03;;;3.45;;
19036;SDS011;9651;49.138;8.900;2023-04-06T18:17:44;4.95;;;3.05;;
19036;SDS011;9651;49.138;8.900;2023-04-06T18:21:46;4.40;;;3.13;;
19036;SDS011;9651;49.138;8.900;2023-04-06T18:25:48;6.32;;;4.05;;
19036;SDS011;9651;49.138;8.900;2023-04-06T18:29:51;7.05;;;3.97;;
19036;SDS011;9651;49.138;8.900;2023-04-06T18:33:53;8.50;;;4.93;;
19036;SDS011;9651;49.138;8.900;2023-04-06T18:37:55;5.63;;;3.55;;
19036;SDS011;9651;49.138;8.900;2023-04-06T18:41:57;6.80;;;3.70;;
19036;SDS011;9651;49.138;8.900;2023-04-06T18:46:01;5.30;;;3.77;;
19036;SDS011;9651;49.138;8.900;2023-04-06T18:50:04;6.80;;;3.97;;
19036;SDS011;9651;49.138;8.900;2023-04-06T18:54:06;7.87;;;4.50;;
19036;SDS011;9651;49.138;8.900;2023-04-06T18:58:08;8.60;;;4.30;;
19036;SDS011;9651;49.138;8.900;2023-04-06T19:02:13;7.73;;;4.57;;
19036;SDS011;9651;49.138;8.900;2023-04-06T19:06:15;9.33;;;4.67;;
19036;SDS011;9651;49.138;8.900;2023-04-06T19:10:17;6.80;;;4.40;;
19036;SDS011;9651;49.138;8.900;2023-04-06T19:14:19;6.97;;;4.13;;
19036;SDS011;9651;49.138;8.900;2023-04-06T19:18:23;6.23;;;4.87;;
19036;SDS011;9651;49.138;8.900;2023-04-06T19:22:25;6.20;;;3.63;;
19036;SDS011;9651;49.138;8.900;2023-04-06T19:26:27;5.97;;;2.90;;
19036;SDS011;9651;49.138;8.900;2023-04-06T19:30:29;6.43;;;4.00;;
19036;SDS011;9651;49.138;8.900;2023-04-06T19:34:32;8.23;;;6.00;;
19036;SDS011;9651;49.138;8.900;2023-04-06T19:38:35;12.93;;;8.70;;
19036;SDS011;9651;49.138;8.900;2023-04-06T19:42:37;9.67;;;7.23;;
19036;SDS011;9651;49.138;8.900;2023-04-06T19:46:39;9.17;;;6.20;;
19036;SDS011;9651;49.138;8.900;2023-04-06T19:50:42;7.50;;;4.97;;
19036;SDS011;9651;49.138;8.900;2023-04-06T19:54:45;8.33;;;5.80;;
19036;SDS011;9651;49.138;8.900;2023-04-06T19:58:47;9.47;;;5.57;;
19036;SDS011;9651;49.138;8.900;2023-04-06T20:02:49;7.37;;;5.90;;
19036;SDS011;9651;49.138;8.900;2023-04-06T20:06:52;6.40;;;4.87;;
19036;SDS011;9651;49.138;8.900;2023-04-06T20:10:58;8.00;;;4.67;;
19036;SDS011;9651;49.138;8.900;2023-04-06T20:15:01;8.10;;;4.23;;
19036;SDS011;9651;49.138;8.900;2023-04-06T20:19:04;8.37;;;5.30;;
19036;SDS011;9651;49.138;8.900;2023-04-06T20:23:08;7.47;;;4.80;;
19036;SDS011;9651;49.138;8.900;2023-04-06T20:27:11;11.43;;;4.80;;
19036;SDS011;9651;49.138;8.900;2023-04-06T20:31:13;8.33;;;4.83;;
19036;SDS011;9651;49.138;8.900;2023-04-06T20:35:15;7.33;;;4.73;;
19036;SDS011;9651;49.138;8.900;2023-04-06T20:39:18;6.67;;;4.67;;
19036;SDS011;9651;49.138;8.900;2023-04-06T20:43:20;8.93;;;5.07;;
19036;SDS011;9651;49.138;8.900;2023-04-06T20:47:24;7.93;;;4.90;;
19036;SDS011;9651;49.138;8.900;2023-04-06T20:51:26;9.77;;;5.70;;
19036;SDS011;9651;49.138;8.900;2023-04-06T20:55:30;8.30;;;5.07;;
19036;SDS011;9651;49.138;8.900;2023-04-06T20:59:33;8.17;;;6.17;;
19036;SDS011;9651;49.138;8.900;2023-04-06T21:03:36;6.37;;;5.40;;
19036;SDS011;9651;49.138;8.900;2023-04-06T21:07:38;11.23;;;5.37;;
19036;SDS011;9651;49.138;8.900;2023-04-06T21:11:41;6.80;;;4.93;;
19036;SDS011;9651;49.138;8.900;2023-04-06T21:15:43;9.63;;;5.60;;
19036;SDS011;9651;49.138;8.900;2023-04-06T21:19:45;8.47;;;5.47;;
19036;SDS011;9651;49.138;8.900;2023-04-06T21:23:48;9.47;;;5.57;;
19036;SDS011;9651;49.138;8.900;2023-04-06T21:27:53;7.27;;;5.00;;
19036;SDS011;9651;49.138;8.900;2023-04-06T21:31:55;8.57;;;5.77;;
19036;SDS011;9651;49.138;8.900;2023-04-06T21:35:57;7.17;;;5.20;;
19036;SDS011;9651;49.138;8.900;2023-04-06T21:39:58;6.37;;;5.00;;
19036;SDS011;9651;49.138;8.900;2023-04-06T21:44:02;7.80;;;5.40;;
19036;SDS011;9651;49.138;8.900;2023-04-06T21:48:04;9.87;;;5.70;;
19036;SDS011;9651;49.138;8.900;2023-04-06T21:52:07;7.33;;;5.33;;
19036;SDS011;9651;49.138;8.900;2023-04-06T21:56:09;7.20;;;5.37;;
19036;SDS011;9651;49.138;8.900;2023-04-06T22:00:13;6.30;;;5.00;;
19036;SDS011;9651;49.138;8.900;2023-04-06T22:04:16;7.40;;;5.70;;
19036;SDS011;9651;49.138;8.900;2023-04-06T22:08:18;7.57;;;5.00;;
19036;SDS011;9651;49.138;8.900;2023-04-06T22:12:20;8.83;;;5.23;;
19036;SDS011;9651;49.138;8.900;2023-04-06T22:16:24;9.07;;;5.87;;
19036;SDS011;9651;49.138;8.900;2023-04-06T22:20:26;7.10;;;5.43;;
19036;SDS011;9651;49.138;8.900;2023-04-06T22:24:28;8.63;;;5.37;;
19036;SDS011;9651;49.138;8.900;2023-04-06T22:28:30;9.73;;;5.40;;
19036;SDS011;9651;49.138;8.900;2023-04-06T22:32:33;6.93;;;5.10;;
19036;SDS011;9651;49.138;8.900;2023-04-06T22:36:35;7.57;;;5.37;;
19036;SDS011;9651;49.138;8.900;2023-04-06T22:40:37;9.40;;;6.00;;
19036;SDS011;9651;49.138;8.900;2023-04-06T22:44:39;8.13;;;5.53;;
19036;SDS011;9651;49.138;8.900;2023-04-06T22:48:42;7.60;;;5.40;;
19036;SDS011;9651;49.138;8.900;2023-04-06T22:52:44;6.97;;;5.30;;
19036;SDS011;9651;49.138;8.900;2023-04-06T22:56:46;10.23;;;6.07;;
19036;SDS011;9651;49.138;8.900;2023-04-06T23:00:47;11.17;;;6.43;;
19036;SDS011;9651;49.138;8.900;2023-04-06T23:04:51;11.43;;;6.53;;
19036;SDS011;9651;49.138;8.900;2023-04-06T23:08:53;9.60;;;6.03;;
19036;SDS011;9651;49.138;8.900;2023-04-06T23:12:54;8.73;;;5.37;;
19036;SDS011;9651;49.138;8.900;2023-04-06T23:16:56;8.47;;;5.60;;
19036;SDS011;9651;49.138;8.900;2023-04-06T23:21:00;8.60;;;5.97;;
19036;SDS011;9651;49.138;8.900;2023-04-06T23:25:01;10.20;;;5.80;;
19036;SDS011;9651;49.138;8.900;2023-04-06T23:29:04;10.73;;;6.03;;
19036;SDS011;9651;49.138;8.900;2023-04-06T23:33:06;9.37;;;5.87;;
19036;SDS011;9651;49.138;8.900;2023-04-06T23:37:09;9.90;;;6.40;;
19036;SDS011;9651;49.138;8.900;2023-04-06T23:41:12;9.40;;;6.30;;
19036;SDS011;9651;49.138;8.900;2023-04-06T23:45:14;9.27;;;6.13;;
19036;SDS011;9651;49.138;8.900;2023-04-06T23:49:17;8.33;;;6.10;;
19036;SDS011;9651;49.138;8.900;2023-04-06T23:53:20;9.83;;;5.37;;
19036;SDS011;9651;49.138;8.900;2023-04-06T23:57:22;8.67;;;6.00;;
